createdAt,value
2023-03-28T00:01:26.167Z,2.42
2023-03-28T00:02:58.429Z,4.38
2023-03-28T00:04:31.564Z,3.30
2023-03-28T00:06:09.473Z,2.70
2023-03-28T00:07:42.665Z,2.47
2023-03-28T00:09:16.967Z,2.22
2023-03-28T00:10:50.917Z,3.45
2023-03-28T00:12:25.796Z,3.15
2023-03-28T00:14:01.653Z,2.90
2023-03-28T00:15:35.350Z,2.30
2023-03-28T00:17:08.735Z,5.80
2023-03-28T00:18:42.933Z,3.88
2023-03-28T00:20:17.546Z,3.58
2023-03-28T00:21:51.600Z,2.60
2023-03-28T00:23:24.702Z,2.95
2023-03-28T00:24:59.366Z,2.75
2023-03-28T00:26:35.810Z,2.08
2023-03-28T00:28:11.560Z,2.50
2023-03-28T00:29:45.384Z,3.35
2023-03-28T00:31:19.610Z,2.97
2023-03-28T00:32:53.106Z,5.05
2023-03-28T00:34:26.697Z,2.85
2023-03-28T00:35:59.501Z,4.47
2023-03-28T00:37:34.441Z,3.35
2023-03-28T00:39:10.202Z,3.67
2023-03-28T00:40:45.976Z,2.53
2023-03-28T00:42:20.139Z,3.65
2023-03-28T00:43:57.096Z,3.40
2023-03-28T00:45:30.516Z,7.13
2023-03-28T00:47:04.030Z,3.50
2023-03-28T00:48:38.550Z,3.92
2023-03-28T00:50:20.747Z,2.78
2023-03-28T00:51:59.206Z,2.67
2023-03-28T00:53:35.417Z,1.30
2023-03-28T00:55:18.375Z,3.90
2023-03-28T00:56:57.188Z,2.30
2023-03-28T00:58:35.216Z,3.05
2023-03-28T01:00:13.428Z,4.20
2023-03-28T01:01:48.314Z,2.35
2023-03-28T01:03:27.560Z,2.72
2023-03-28T01:05:04.004Z,2.40
2023-03-28T01:06:42.774Z,3.45
2023-03-28T01:08:21.982Z,1.27
2023-03-28T01:09:56.702Z,3.20
2023-03-28T01:11:31.225Z,2.67
2023-03-28T01:13:05.766Z,3.10
2023-03-28T01:14:40.229Z,2.58
2023-03-28T01:16:17.762Z,3.80
2023-03-28T01:17:51.851Z,3.42
2023-03-28T01:19:51.964Z,3.33
2023-03-28T01:22:25.169Z,2.28
2023-03-28T01:24:50.527Z,2.00
2023-03-28T01:26:46.151Z,1.95
2023-03-28T01:28:53.286Z,2.63
2023-03-28T01:31:05.206Z,4.60
2023-03-28T01:33:50.905Z,2.22
2023-03-28T01:36:34.021Z,3.42
2023-03-28T01:38:18.018Z,3.55
2023-03-28T01:40:19.380Z,3.28
2023-03-28T01:42:06.305Z,4.32
2023-03-28T01:43:51.412Z,2.65
2023-03-28T01:45:38.968Z,3.30
2023-03-28T01:47:18.929Z,3.92
2023-03-28T01:49:04.734Z,3.83
2023-03-28T01:50:48.940Z,6.70
2023-03-28T01:52:31.837Z,3.20
2023-03-28T01:54:17.955Z,2.75
2023-03-28T01:56:03.354Z,3.33
2023-03-28T01:57:46.098Z,3.63
2023-03-28T01:59:28.887Z,2.08
2023-03-28T02:01:36.631Z,4.53
2023-03-28T02:03:22.836Z,3.65
2023-03-28T02:05:01.374Z,4.05
2023-03-28T02:06:39.484Z,2.90
2023-03-28T02:08:21.507Z,3.92
2023-03-28T02:10:02.155Z,2.88
2023-03-28T02:12:00.408Z,3.95
2023-03-28T02:14:01.617Z,5.63
2023-03-28T02:18:14.081Z,3.35
2023-03-28T02:20:08.823Z,4.15
2023-03-28T02:22:10.374Z,3.97
2023-03-28T02:24:09.620Z,4.68
2023-03-28T02:26:05.320Z,4.18
2023-03-28T02:27:52.707Z,4.05
2023-03-28T02:29:42.251Z,2.80
2023-03-28T02:31:24.877Z,5.60
2023-03-28T02:33:02.689Z,3.60
2023-03-28T02:34:36.737Z,3.70
2023-03-28T02:36:27.486Z,4.47
2023-03-28T02:38:13.836Z,3.40
2023-03-28T02:39:59.598Z,4.97
2023-03-28T02:41:53.121Z,3.60
2023-03-28T02:43:56.417Z,3.85
2023-03-28T02:46:04.124Z,2.67
2023-03-28T02:47:47.295Z,5.85
2023-03-28T02:49:50.705Z,3.40
2023-03-28T02:51:34.831Z,3.70
2023-03-28T02:53:14.380Z,3.95
2023-03-28T02:54:54.316Z,6.82
2023-03-28T02:57:01.863Z,5.32
2023-03-28T02:58:51.268Z,6.47
2023-03-28T03:00:24.705Z,4.68
2023-03-28T03:01:58.241Z,3.88
2023-03-28T03:03:33.500Z,4.57
2023-03-28T03:06:42.270Z,2.80
2023-03-28T03:08:16.180Z,3.53
2023-03-28T03:09:53.745Z,4.82
2023-03-28T03:11:28.908Z,3.60
2023-03-28T03:13:03.846Z,4.78
2023-03-28T03:14:38.859Z,3.78
2023-03-28T03:16:35.218Z,4.68
2023-03-28T03:18:08.926Z,3.35
2023-03-28T03:19:43.404Z,2.83
2023-03-28T03:21:17.816Z,3.53
2023-03-28T03:22:51.060Z,4.13
2023-03-28T03:24:25.382Z,5.18
2023-03-28T03:25:59.270Z,4.65
2023-03-28T03:27:39.351Z,4.90
2023-03-28T03:29:16.634Z,5.63
2023-03-28T03:30:53.431Z,4.57
2023-03-28T03:32:27.240Z,4.05
2023-03-28T03:34:09.009Z,4.60
2023-03-28T03:35:46.528Z,4.97
2023-03-28T03:37:20.820Z,3.78
2023-03-28T03:40:29.855Z,5.03
2023-03-28T03:42:04.626Z,4.75
2023-03-28T03:43:40.029Z,5.22
2023-03-28T03:45:15.671Z,3.63
2023-03-28T03:46:49.679Z,3.65
2023-03-28T03:48:21.949Z,4.03
2023-03-28T03:50:01.131Z,4.93
2023-03-28T03:51:34.424Z,4.40
2023-03-28T03:53:07.914Z,3.17
2023-03-28T03:54:45.800Z,5.20
2023-03-28T03:56:19.640Z,5.97
2023-03-28T03:58:03.027Z,3.72
2023-03-28T03:59:36.939Z,3.75
2023-03-28T04:01:14.174Z,3.03
2023-03-28T04:02:48.042Z,3.70
2023-03-28T04:04:32.488Z,4.80
2023-03-28T04:06:26.214Z,3.80
2023-03-28T04:08:01.487Z,4.10
2023-03-28T04:09:40.100Z,3.63
2023-03-28T04:11:13.373Z,3.70
2023-03-28T04:12:49.510Z,5.13
2023-03-28T04:14:23.089Z,5.28
2023-03-28T04:15:57.712Z,4.07
2023-03-28T04:17:50.018Z,7.28
2023-03-28T04:19:25.610Z,4.63
2023-03-28T04:21:02.434Z,5.20
2023-03-28T04:22:48.165Z,5.95
2023-03-28T04:24:25.070Z,5.90
2023-03-28T04:26:25.594Z,5.63
2023-03-28T04:28:18.355Z,3.10
2023-03-28T04:30:01.954Z,4.38
2023-03-28T04:32:07.066Z,3.30
2023-03-28T04:34:05.307Z,4.32
2023-03-28T04:35:42.063Z,7.43
2023-03-28T04:37:15.718Z,5.55
2023-03-28T04:39:11.165Z,6.53
2023-03-28T04:41:00.865Z,7.03
2023-03-28T04:42:56.902Z,4.00
2023-03-28T04:44:34.999Z,5.78
2023-03-28T04:46:11.657Z,4.95
2023-03-28T04:47:45.308Z,3.30
2023-03-28T04:49:26.362Z,3.72
2023-03-28T04:50:59.498Z,6.65
2023-03-28T04:52:32.853Z,3.85
2023-03-28T04:54:06.190Z,3.70
2023-03-28T04:56:00.065Z,4.80
2023-03-28T04:57:33.944Z,5.10
2023-03-28T04:59:13.709Z,5.90
2023-03-28T05:00:47.342Z,5.05
2023-03-28T05:02:41.093Z,3.63
2023-03-28T05:04:18.352Z,6.30
2023-03-28T05:05:54.226Z,5.45
2023-03-28T05:07:27.494Z,4.85
2023-03-28T05:09:01.227Z,5.13
2023-03-28T05:10:36.093Z,5.53
2023-03-28T05:12:12.641Z,4.15
2023-03-28T05:14:04.852Z,5.82
2023-03-28T05:15:46.834Z,4.68
2023-03-28T05:17:29.139Z,4.25
2023-03-28T05:19:14.034Z,4.22
2023-03-28T05:21:12.486Z,5.13
2023-03-28T05:22:45.970Z,4.13
2023-03-28T05:24:19.330Z,4.10
2023-03-28T05:25:53.488Z,3.63
2023-03-28T05:29:01.419Z,5.60
2023-03-28T05:30:35.301Z,4.93
2023-03-28T05:32:09.364Z,3.58
2023-03-28T05:33:42.866Z,5.35
2023-03-28T05:35:27.738Z,7.95
2023-03-28T05:37:02.555Z,5.28
2023-03-28T05:38:41.353Z,4.57
2023-03-28T05:40:21.355Z,4.43
2023-03-28T05:43:28.972Z,3.38
2023-03-28T05:45:02.744Z,4.40
2023-03-28T05:46:45.855Z,5.00
2023-03-28T05:48:19.570Z,3.70
2023-03-28T05:49:54.989Z,4.88
2023-03-28T05:51:28.425Z,4.93
2023-03-28T05:53:02.999Z,3.65
2023-03-28T05:54:36.385Z,4.93
2023-03-28T05:56:11.168Z,4.60
2023-03-28T05:57:44.895Z,4.68
2023-03-28T05:59:20.017Z,3.95
2023-03-28T06:00:53.375Z,3.60
2023-03-28T06:02:26.862Z,3.75
2023-03-28T06:04:03.651Z,4.78
2023-03-28T06:05:37.084Z,5.80
2023-03-28T06:07:21.199Z,3.50
2023-03-28T06:09:00.764Z,5.95
2023-03-28T06:10:36.398Z,4.93
2023-03-28T06:12:23.878Z,6.75
2023-03-28T06:13:58.716Z,6.43
2023-03-28T06:15:31.980Z,4.97
2023-03-28T06:17:07.615Z,5.75
2023-03-28T06:18:51.084Z,5.80
2023-03-28T06:20:25.452Z,5.63
2023-03-28T06:22:02.495Z,7.03
2023-03-28T06:23:36.676Z,6.78
2023-03-28T06:25:11.851Z,4.88
2023-03-28T06:26:45.248Z,4.65
2023-03-28T06:28:21.716Z,5.22
2023-03-28T06:30:12.843Z,6.35
2023-03-28T06:31:51.428Z,5.50
2023-03-28T06:33:25.368Z,8.70
2023-03-28T06:34:58.834Z,5.13
2023-03-28T06:36:32.543Z,4.95
2023-03-28T06:38:06.140Z,6.85
2023-03-28T06:39:39.533Z,6.80
2023-03-28T06:41:14.269Z,6.30
2023-03-28T06:42:48.046Z,6.50
2023-03-28T06:44:40.174Z,7.57
2023-03-28T06:46:29.906Z,7.18
2023-03-28T06:48:03.270Z,7.88
2023-03-28T06:49:59.973Z,6.40
2023-03-28T06:51:44.381Z,5.40
2023-03-28T06:53:18.393Z,5.15
2023-03-28T06:54:51.694Z,5.20
2023-03-28T06:56:26.193Z,8.50
2023-03-28T06:58:01.784Z,4.35
2023-03-28T06:59:42.524Z,4.88
2023-03-28T07:01:20.798Z,6.70
2023-03-28T07:03:01.653Z,5.13
2023-03-28T07:04:35.058Z,6.65
2023-03-28T07:06:12.810Z,5.43
2023-03-28T07:07:53.509Z,4.55
2023-03-28T07:09:27.188Z,6.18
2023-03-28T07:11:13.405Z,5.72
2023-03-28T07:12:49.871Z,9.85
2023-03-28T07:14:23.368Z,6.13
2023-03-28T07:16:05.454Z,5.85
2023-03-28T07:17:38.896Z,6.93
2023-03-28T07:19:12.181Z,7.82
2023-03-28T07:20:57.984Z,4.85
2023-03-28T07:22:36.994Z,9.55
2023-03-28T07:24:10.627Z,7.82
2023-03-28T07:26:03.609Z,6.30
2023-03-28T07:27:39.773Z,8.52
2023-03-28T07:29:14.636Z,6.70
2023-03-28T07:30:47.837Z,7.43
2023-03-28T07:32:21.036Z,7.82
2023-03-28T07:33:58.199Z,7.00
2023-03-28T07:35:31.787Z,6.63
2023-03-28T07:37:05.353Z,7.63
2023-03-28T07:38:52.879Z,6.90
2023-03-28T07:40:26.920Z,7.25
2023-03-28T07:42:00.646Z,10.63
2023-03-28T07:43:33.969Z,7.88
2023-03-28T07:45:10.576Z,9.93
2023-03-28T07:46:44.139Z,7.10
2023-03-28T07:48:17.638Z,9.82
2023-03-28T07:49:51.478Z,12.57
2023-03-28T07:51:25.496Z,13.70
2023-03-28T07:52:59.964Z,11.77
2023-03-28T07:54:37.241Z,11.55
2023-03-28T07:56:11.855Z,6.72
2023-03-28T07:58:09.498Z,8.73
2023-03-28T07:59:45.782Z,8.73
2023-03-28T08:01:22.682Z,7.90
2023-03-28T08:02:59.716Z,6.72
2023-03-28T08:04:33.250Z,8.15
2023-03-28T08:06:30.969Z,7.63
2023-03-28T08:08:07.128Z,9.77
2023-03-28T08:09:40.219Z,6.57
2023-03-28T08:11:28.165Z,7.07
2023-03-28T08:13:01.348Z,7.10
2023-03-28T08:14:34.586Z,4.95
2023-03-28T08:16:09.498Z,5.35
2023-03-28T08:19:17.861Z,5.47
2023-03-28T08:21:14.136Z,6.43
2023-03-28T08:22:47.722Z,4.72
2023-03-28T08:24:50.164Z,5.15
2023-03-28T08:26:29.454Z,4.90
2023-03-28T08:28:03.908Z,5.57
2023-03-28T08:29:37.580Z,4.30
2023-03-28T08:31:14.512Z,5.95
2023-03-28T08:32:51.615Z,10.60
2023-03-28T08:34:25.790Z,3.65
2023-03-28T08:36:02.346Z,5.10
2023-03-28T08:37:37.247Z,4.25
2023-03-28T08:39:10.643Z,6.35
2023-03-28T08:40:54.652Z,4.55
2023-03-28T08:42:58.175Z,5.07
2023-03-28T08:45:03.344Z,3.30
2023-03-28T08:46:41.399Z,2.70
2023-03-28T08:48:26.986Z,4.13
2023-03-28T08:50:09.739Z,2.28
2023-03-28T08:51:49.787Z,2.05
2023-03-28T08:53:30.367Z,3.05
2023-03-28T08:55:16.700Z,4.97
2023-03-28T08:56:53.860Z,5.57
2023-03-28T08:58:35.267Z,1.70
2023-03-28T09:00:17.447Z,3.30
2023-03-28T09:01:51.345Z,5.03
2023-03-28T09:03:26.477Z,3.70
2023-03-28T09:05:21.988Z,3.40
2023-03-28T09:07:11.937Z,3.38
2023-03-28T09:09:27.050Z,2.67
2023-03-28T09:11:39.837Z,3.45
2023-03-28T09:13:38.435Z,3.88
2023-03-28T09:15:42.145Z,3.85
2023-03-28T09:17:29.550Z,5.35
2023-03-28T09:19:34.205Z,5.10
2023-03-28T09:21:57.553Z,2.08
2023-03-28T09:24:11.108Z,3.45
2023-03-28T09:26:17.553Z,3.70
2023-03-28T09:28:04.277Z,5.35
2023-03-28T09:29:41.692Z,5.00
2023-03-28T09:31:19.914Z,2.15
2023-03-28T09:32:58.982Z,8.63
2023-03-28T09:34:40.167Z,2.88
2023-03-28T09:37:54.381Z,4.97
2023-03-28T09:39:37.739Z,7.25
2023-03-28T09:41:19.362Z,3.17
2023-03-28T09:43:04.441Z,7.97
2023-03-28T09:44:54.722Z,5.38
2023-03-28T09:46:49.252Z,4.22
2023-03-28T09:48:30.941Z,5.38
2023-03-28T09:50:16.401Z,7.93
2023-03-28T09:51:56.769Z,13.50
2023-03-28T09:53:33.291Z,26.13
2023-03-28T09:55:17.509Z,27.65
2023-03-28T09:56:51.230Z,21.65
2023-03-28T09:58:53.801Z,6.60
2023-03-28T10:00:40.772Z,48.08
2023-03-28T10:02:40.683Z,35.25
2023-03-28T10:04:21.647Z,21.30
2023-03-28T10:06:27.989Z,17.48
2023-03-28T10:08:06.646Z,15.10
2023-03-28T10:09:54.247Z,17.33
2023-03-28T10:11:28.429Z,11.27
2023-03-28T10:13:05.838Z,6.43
2023-03-28T10:14:47.748Z,3.95
2023-03-28T10:16:38.183Z,5.80
2023-03-28T10:18:20.903Z,15.43
2023-03-28T10:20:17.607Z,12.45
2023-03-28T10:21:54.612Z,5.70
2023-03-28T10:23:31.350Z,8.27
2023-03-28T10:25:08.227Z,21.25
2023-03-28T10:26:41.580Z,8.35
2023-03-28T10:28:19.493Z,4.72
2023-03-28T10:29:56.130Z,2.53
2023-03-28T10:31:34.515Z,4.07
2023-03-28T10:33:44.157Z,2.58
2023-03-28T10:35:46.562Z,10.70
2023-03-28T10:37:31.715Z,7.35
2023-03-28T10:39:33.210Z,16.27
2023-03-28T10:41:32.465Z,13.20
2023-03-28T10:43:35.397Z,7.68
2023-03-28T10:45:37.758Z,4.93
2023-03-28T10:47:19.355Z,9.82
2023-03-28T10:49:06.837Z,11.82
2023-03-28T10:50:48.444Z,10.70
2023-03-28T10:52:34.276Z,25.60
2023-03-28T10:54:27.353Z,7.93
2023-03-28T10:56:20.596Z,10.23
2023-03-28T10:58:07.224Z,6.45
2023-03-28T10:59:59.100Z,4.45
2023-03-28T11:01:44.214Z,6.70
2023-03-28T11:05:28.829Z,8.27
2023-03-28T11:07:11.172Z,7.80
2023-03-28T11:09:21.561Z,3.88
2023-03-28T11:11:47.877Z,14.80
2023-03-28T11:13:31.374Z,6.25
2023-03-28T11:15:14.516Z,6.25
2023-03-28T11:17:06.229Z,15.80
2023-03-28T11:19:09.276Z,10.32
2023-03-28T11:20:56.795Z,9.15
2023-03-28T11:23:02.771Z,13.05
2023-03-28T11:24:59.894Z,19.50
2023-03-28T11:27:15.944Z,6.70
2023-03-28T11:29:33.106Z,9.32
2023-03-28T11:31:20.657Z,10.55
2023-03-28T11:33:14.065Z,6.85
2023-03-28T11:35:02.782Z,10.00
2023-03-28T11:36:47.569Z,8.20
2023-03-28T11:38:28.087Z,9.95
2023-03-28T11:40:14.949Z,14.00
2023-03-28T11:42:09.676Z,5.78
2023-03-28T11:43:57.009Z,15.68
2023-03-28T11:45:50.404Z,8.85
2023-03-28T11:47:34.122Z,7.50
2023-03-28T11:49:23.211Z,9.80
2023-03-28T11:51:07.372Z,8.00
2023-03-28T11:53:00.557Z,5.50
2023-03-28T11:54:42.618Z,10.10
2023-03-28T11:56:31.532Z,8.20
2023-03-28T11:58:20.556Z,4.35
2023-03-28T12:00:05.811Z,3.28
2023-03-28T12:01:55.566Z,15.10
2023-03-28T12:03:36.619Z,6.60
2023-03-28T12:05:30.561Z,2.90
2023-03-28T12:07:15.499Z,16.33
2023-03-28T12:09:01.314Z,6.63
2023-03-28T12:10:43.135Z,10.35
2023-03-28T12:12:35.844Z,10.48
2023-03-28T12:14:37.997Z,35.28
2023-03-28T12:16:34.574Z,7.68
2023-03-28T12:18:16.571Z,12.02
2023-03-28T12:19:50.004Z,3.67
2023-03-28T12:21:33.430Z,5.10
2023-03-28T12:23:14.918Z,3.55
2023-03-28T12:25:14.271Z,3.92
2023-03-28T12:27:02.886Z,6.30
2023-03-28T12:28:46.089Z,3.70
2023-03-28T12:30:32.398Z,12.13
2023-03-28T12:32:27.038Z,3.42
2023-03-28T12:34:14.835Z,6.10
2023-03-28T12:36:28.460Z,13.82
2023-03-28T12:38:16.900Z,5.10
2023-03-28T12:39:58.615Z,6.07
2023-03-28T12:41:40.005Z,9.52
2023-03-28T12:43:19.210Z,8.65
2023-03-28T12:45:01.170Z,6.63
2023-03-28T12:46:45.983Z,6.47
2023-03-28T12:48:32.928Z,4.07
2023-03-28T12:50:15.918Z,3.03
2023-03-28T12:51:53.670Z,2.13
2023-03-28T12:53:28.186Z,4.20
2023-03-28T12:55:07.176Z,3.15
2023-03-28T12:56:47.481Z,4.07
2023-03-28T12:58:29.108Z,5.45
2023-03-28T13:00:30.116Z,4.70
2023-03-28T13:02:48.629Z,5.43
2023-03-28T13:06:37.976Z,5.07
2023-03-28T13:08:24.436Z,4.35
2023-03-28T13:11:53.911Z,2.45
2023-03-28T13:13:34.400Z,1.98
2023-03-28T13:17:03.692Z,1.92
2023-03-28T13:18:47.065Z,2.22
2023-03-28T13:20:28.494Z,3.90
2023-03-28T13:22:04.135Z,2.33
2023-03-28T13:23:47.545Z,4.15
2023-03-28T13:25:32.748Z,1.92
2023-03-28T13:27:17.040Z,4.75
2023-03-28T13:28:51.956Z,2.42
2023-03-28T13:30:29.110Z,2.88
2023-03-28T13:32:06.877Z,1.17
2023-03-28T13:33:47.930Z,3.05
2023-03-28T13:35:44.141Z,2.22
2023-03-28T13:37:24.156Z,1.85
2023-03-28T13:39:09.975Z,1.13
2023-03-28T13:40:51.141Z,3.25
2023-03-28T13:42:30.801Z,2.05
2023-03-28T13:44:11.500Z,1.65
2023-03-28T13:47:31.763Z,1.55
2023-03-28T13:49:16.885Z,3.38
2023-03-28T13:50:54.322Z,2.40
2023-03-28T13:52:27.483Z,2.50
2023-03-28T13:54:00.787Z,1.63
2023-03-28T13:55:34.036Z,1.90
2023-03-28T13:57:13.736Z,1.73
2023-03-28T13:58:50.292Z,2.15
2023-03-28T14:00:26.776Z,1.30
2023-03-28T14:02:04.462Z,2.00
2023-03-28T14:03:39.587Z,1.73
2023-03-28T14:05:21.095Z,1.40
2023-03-28T14:06:56.263Z,1.52
2023-03-28T14:08:29.804Z,2.78
2023-03-28T14:10:02.998Z,1.98
2023-03-28T14:11:38.723Z,1.67
2023-03-28T14:13:16.444Z,2.72
2023-03-28T14:14:53.927Z,5.28
2023-03-28T14:16:27.564Z,1.52
2023-03-28T14:18:04.424Z,1.63
2023-03-28T14:19:43.623Z,2.38
2023-03-28T14:21:16.947Z,1.00
2023-03-28T14:22:59.619Z,2.05
2023-03-28T14:24:34.710Z,1.48
2023-03-28T14:26:16.645Z,2.60
2023-03-28T14:27:52.504Z,1.55
2023-03-28T14:29:25.858Z,4.35
2023-03-28T14:31:00.639Z,2.80
2023-03-28T14:32:35.214Z,2.08
2023-03-28T14:34:25.563Z,3.17
2023-03-28T14:36:01.903Z,2.50
2023-03-28T14:37:35.280Z,2.22
2023-03-28T14:39:19.623Z,4.00
2023-03-28T14:40:52.934Z,2.17
2023-03-28T14:42:32.004Z,3.00
2023-03-28T14:44:08.103Z,3.45
2023-03-28T14:45:47.845Z,3.85
2023-03-28T14:47:28.886Z,1.95
2023-03-28T14:49:09.408Z,2.97
2023-03-28T14:50:47.673Z,3.03
2023-03-28T14:52:29.061Z,4.57
2023-03-28T14:54:04.975Z,2.90
2023-03-28T14:55:38.654Z,4.45
2023-03-28T14:57:18.012Z,1.70
2023-03-28T14:58:55.644Z,2.75
2023-03-28T15:00:37.559Z,3.58
2023-03-28T15:02:23.582Z,2.60
2023-03-28T15:04:02.283Z,4.20
2023-03-28T15:05:39.347Z,1.42
2023-03-28T15:07:26.438Z,3.35
2023-03-28T15:09:01.992Z,1.92
2023-03-28T15:10:35.412Z,4.75
2023-03-28T15:12:09.867Z,3.08
2023-03-28T15:13:46.557Z,2.45
2023-03-28T15:15:25.695Z,1.15
2023-03-28T15:17:00.526Z,2.88
2023-03-28T15:18:44.343Z,2.05
2023-03-28T15:20:22.823Z,4.47
2023-03-28T15:22:01.268Z,2.20
2023-03-28T15:23:44.012Z,1.67
2023-03-28T15:25:18.231Z,3.10
2023-03-28T15:26:56.966Z,2.58
2023-03-28T15:28:31.916Z,1.85
2023-03-28T15:30:17.277Z,1.88
2023-03-28T15:31:50.996Z,2.75
2023-03-28T15:33:25.995Z,2.10
2023-03-28T15:35:04.511Z,2.78
2023-03-28T15:36:37.964Z,1.95
2023-03-28T15:38:20.146Z,1.63
2023-03-28T15:40:12.127Z,2.25
2023-03-28T15:41:48.196Z,2.50
2023-03-28T15:43:38.689Z,2.40
2023-03-28T15:45:38.314Z,3.00
2023-03-28T15:47:21.360Z,1.63
2023-03-28T15:48:59.756Z,3.80
2023-03-28T15:50:38.293Z,1.65
2023-03-28T15:52:19.834Z,1.88
2023-03-28T15:53:54.152Z,2.25
2023-03-28T15:55:29.275Z,3.17
2023-03-28T15:57:04.050Z,2.30
2023-03-28T15:58:43.886Z,1.98
2023-03-28T16:00:46.425Z,1.33
2023-03-28T16:02:30.984Z,2.28
2023-03-28T16:04:25.589Z,1.83
2023-03-28T16:06:23.247Z,2.78
2023-03-28T16:08:23.711Z,2.90
2023-03-28T16:11:31.506Z,1.55
2023-03-28T16:13:24.821Z,2.03
2023-03-28T16:15:20.554Z,1.42
2023-03-28T16:17:00.863Z,6.20
2023-03-28T16:18:45.624Z,2.40
2023-03-28T16:20:22.166Z,2.33
2023-03-28T16:21:58.405Z,2.95
2023-03-28T16:23:32.920Z,2.58
2023-03-28T16:25:07.254Z,1.83
2023-03-28T16:26:42.040Z,1.75
2023-03-28T16:28:19.078Z,2.28
2023-03-28T16:29:52.570Z,1.80
2023-03-28T16:31:28.507Z,3.83
2023-03-28T16:33:01.920Z,1.25
2023-03-28T16:34:35.184Z,3.05
2023-03-28T16:36:11.397Z,3.13
2023-03-28T16:37:44.622Z,2.00
2023-03-28T16:39:17.750Z,1.92
2023-03-28T16:40:51.288Z,1.52
2023-03-28T16:42:27.577Z,3.47
2023-03-28T16:44:01.236Z,2.13
2023-03-28T16:45:34.501Z,2.47
2023-03-28T16:47:07.892Z,2.30
2023-03-28T16:48:41.284Z,1.98
2023-03-28T16:50:15.137Z,1.73
2023-03-28T16:51:48.353Z,1.67
2023-03-28T16:53:21.651Z,2.35
2023-03-28T16:54:54.797Z,2.65
2023-03-28T16:56:30.039Z,3.08
2023-03-28T16:58:05.008Z,3.20
2023-03-28T16:59:45.667Z,3.65
2023-03-28T17:01:19.733Z,2.17
2023-03-28T17:02:53.163Z,2.47
2023-03-28T17:04:28.615Z,2.08
2023-03-28T17:06:04.446Z,3.22
2023-03-28T17:07:37.789Z,1.40
2023-03-28T17:09:11.301Z,2.55
2023-03-28T17:10:45.084Z,1.85
2023-03-28T17:12:18.569Z,2.45
2023-03-28T17:13:55.612Z,2.10
2023-03-28T17:15:29.088Z,1.83
2023-03-28T17:17:02.275Z,2.28
2023-03-28T17:18:35.856Z,2.20
2023-03-28T17:20:11.518Z,2.55
2023-03-28T17:21:45.502Z,2.92
2023-03-28T17:23:18.814Z,1.83
2023-03-28T17:24:52.163Z,4.15
2023-03-28T17:26:26.081Z,4.45
2023-03-28T17:28:00.040Z,3.83
2023-03-28T17:29:34.910Z,3.13
2023-03-28T17:31:09.127Z,1.83
2023-03-28T17:32:42.740Z,2.80
2023-03-28T17:34:16.398Z,3.20
2023-03-28T17:35:50.349Z,1.73
2023-03-28T17:37:24.312Z,3.10
2023-03-28T17:39:00.001Z,3.95
2023-03-28T17:40:33.314Z,3.15
2023-03-28T17:42:07.060Z,2.35
2023-03-28T17:43:41.853Z,2.38
2023-03-28T17:45:16.408Z,2.97
2023-03-28T17:46:49.630Z,1.90
2023-03-28T17:48:22.849Z,1.45
2023-03-28T17:49:57.189Z,2.30
2023-03-28T17:51:30.450Z,2.25
2023-03-28T17:53:04.208Z,4.10
2023-03-28T17:54:37.344Z,2.10
2023-03-28T17:56:12.134Z,2.35
2023-03-28T17:59:19.296Z,1.45
2023-03-28T18:00:54.227Z,2.33
2023-03-28T18:02:27.924Z,2.42
2023-03-28T18:04:16.121Z,1.58
2023-03-28T18:06:18.376Z,2.00
2023-03-28T18:07:52.220Z,3.00
2023-03-28T18:09:28.526Z,1.48
2023-03-28T18:11:02.752Z,2.40
2023-03-28T18:12:36.884Z,3.25
2023-03-28T18:14:11.343Z,1.85
2023-03-28T18:15:45.187Z,3.40
2023-03-28T18:17:20.288Z,2.30
2023-03-28T18:18:54.393Z,2.20
2023-03-28T18:20:28.108Z,1.95
2023-03-28T18:22:01.641Z,2.13
2023-03-28T18:23:35.608Z,2.22
2023-03-28T18:25:10.611Z,3.70
2023-03-28T18:26:43.909Z,2.65
2023-03-28T18:28:17.856Z,2.25
2023-03-28T18:29:51.487Z,3.88
2023-03-28T18:31:27.846Z,2.65
2023-03-28T18:33:03.591Z,1.35
2023-03-28T18:34:36.998Z,2.40
2023-03-28T18:36:12.665Z,2.53
2023-03-28T18:37:46.040Z,2.13
2023-03-28T18:39:19.956Z,1.27
2023-03-28T18:40:54.203Z,2.40
2023-03-28T18:42:27.645Z,1.25
2023-03-28T18:44:01.267Z,1.52
2023-03-28T18:45:36.650Z,1.85
2023-03-28T18:47:10.690Z,1.50
2023-03-28T18:48:45.602Z,2.30
2023-03-28T18:51:52.825Z,3.33
2023-03-28T18:53:27.558Z,1.08
2023-03-28T18:55:01.068Z,1.48
2023-03-28T18:56:34.700Z,2.35
2023-03-28T18:58:10.249Z,3.92
2023-03-28T18:59:43.638Z,3.25
2023-03-28T19:01:17.528Z,2.35
2023-03-28T19:02:51.125Z,2.22
2023-03-28T19:04:26.452Z,2.80
2023-03-28T19:06:01.834Z,2.38
2023-03-28T19:07:35.671Z,2.70
2023-03-28T19:09:09.216Z,2.72
2023-03-28T19:10:47.017Z,2.58
2023-03-28T19:12:20.544Z,1.70
2023-03-28T19:13:55.581Z,1.85
2023-03-28T19:15:29.195Z,3.63
2023-03-28T19:17:02.691Z,1.48
2023-03-28T19:18:38.693Z,2.08
2023-03-28T19:20:13.720Z,2.45
2023-03-28T19:21:47.399Z,2.58
2023-03-28T19:23:20.656Z,4.00
2023-03-28T19:24:54.276Z,2.50
2023-03-28T19:26:27.677Z,2.22
2023-03-28T19:28:00.946Z,2.85
2023-03-28T19:29:34.268Z,3.13
2023-03-28T19:31:10.907Z,1.92
2023-03-28T19:32:44.393Z,1.73
2023-03-28T19:34:19.050Z,2.00
2023-03-28T19:35:53.977Z,2.38
2023-03-28T19:37:27.678Z,3.53
2023-03-28T19:39:02.378Z,2.58
2023-03-28T19:42:09.244Z,1.33
2023-03-28T19:43:43.115Z,2.28
2023-03-28T19:45:16.520Z,2.33
2023-03-28T19:46:49.842Z,3.30
2023-03-28T19:48:23.099Z,2.10
2023-03-28T19:49:56.499Z,2.67
2023-03-28T19:51:31.398Z,3.25
2023-03-28T19:54:38.648Z,2.03
2023-03-28T19:56:12.272Z,2.33
2023-03-28T19:57:45.593Z,2.88
2023-03-28T19:59:19.068Z,2.38
2023-03-28T20:00:52.904Z,2.72
2023-03-28T20:02:26.600Z,1.63
2023-03-28T20:03:59.970Z,1.85
2023-03-28T20:05:33.249Z,5.60
2023-03-28T20:07:07.879Z,2.20
2023-03-28T20:08:42.622Z,4.05
2023-03-28T20:10:16.160Z,2.58
2023-03-28T20:11:49.804Z,1.45
2023-03-28T20:13:23.444Z,3.20
2023-03-28T20:14:57.039Z,1.80
2023-03-28T20:16:30.553Z,1.73
2023-03-28T20:18:04.877Z,2.42
2023-03-28T20:19:38.468Z,2.50
2023-03-28T20:21:14.507Z,2.00
2023-03-28T20:22:49.069Z,1.67
2023-03-28T20:24:22.497Z,4.05
2023-03-28T20:25:57.267Z,1.98
2023-03-28T20:27:32.023Z,1.23
2023-03-28T20:29:05.541Z,1.33
2023-03-28T20:30:37.905Z,2.65
2023-03-28T20:32:11.618Z,2.53
2023-03-28T20:33:46.023Z,4.18
2023-03-28T20:35:19.658Z,3.30
2023-03-28T20:36:56.344Z,3.00
2023-03-28T20:38:31.089Z,4.22
2023-03-28T20:40:10.999Z,2.08
2023-03-28T20:41:45.572Z,2.58
2023-03-28T20:43:20.944Z,1.80
2023-03-28T20:44:55.681Z,1.75
2023-03-28T20:46:29.244Z,2.80
2023-03-28T20:48:06.238Z,2.67
2023-03-28T20:49:46.246Z,2.97
2023-03-28T20:51:22.533Z,1.73
2023-03-28T20:52:56.393Z,3.25
2023-03-28T20:54:30.949Z,2.35
2023-03-28T20:56:06.522Z,3.83
2023-03-28T20:57:42.188Z,7.82
2023-03-28T20:59:15.471Z,2.03
2023-03-28T21:00:49.255Z,1.73
2023-03-28T21:02:23.087Z,2.33
2023-03-28T21:03:58.919Z,2.15
2023-03-28T21:05:33.090Z,1.42
2023-03-28T21:07:06.271Z,1.85
2023-03-28T21:08:38.656Z,1.88
2023-03-28T21:10:13.716Z,1.38
2023-03-28T21:11:46.900Z,1.88
2023-03-28T21:13:22.429Z,1.45
2023-03-28T21:14:56.304Z,3.28
2023-03-28T21:16:31.748Z,2.75
2023-03-28T21:18:05.557Z,1.60
2023-03-28T21:19:38.737Z,2.38
2023-03-28T21:21:13.476Z,2.35
2023-03-28T21:22:46.644Z,2.17
2023-03-28T21:24:20.948Z,2.75
2023-03-28T21:25:54.480Z,3.05
2023-03-28T21:27:27.934Z,2.15
2023-03-28T21:29:01.052Z,1.25
2023-03-28T21:30:34.433Z,1.35
2023-03-28T21:32:07.598Z,1.50
2023-03-28T21:33:42.570Z,1.23
2023-03-28T21:35:16.194Z,1.08
2023-03-28T21:36:49.485Z,2.10
2023-03-28T21:38:22.933Z,1.60
2023-03-28T21:39:56.418Z,1.15
2023-03-28T21:41:30.989Z,1.33
2023-03-28T21:43:04.221Z,2.00
2023-03-28T21:44:37.337Z,1.33
2023-03-28T21:46:13.404Z,1.58
2023-03-28T21:47:46.823Z,1.58
2023-03-28T21:49:20.491Z,1.70
2023-03-28T21:50:59.408Z,1.15
2023-03-28T21:52:32.942Z,1.17
2023-03-28T21:54:06.835Z,1.60
2023-03-28T21:55:40.213Z,1.45
2023-03-28T21:57:14.659Z,1.00
2023-03-28T21:58:47.973Z,1.30
2023-03-28T22:00:20.844Z,1.20
2023-03-28T22:01:54.081Z,1.58
2023-03-28T22:03:27.238Z,1.20
2023-03-28T22:05:00.437Z,2.03
2023-03-28T22:06:33.496Z,1.00
2023-03-28T22:08:06.960Z,1.42
2023-03-28T22:09:40.123Z,1.77
2023-03-28T22:11:16.582Z,1.42
2023-03-28T22:12:53.002Z,1.55
2023-03-28T22:14:26.519Z,1.20
2023-03-28T22:16:00.124Z,2.35
2023-03-28T22:17:36.552Z,2.08
2023-03-28T22:19:11.237Z,1.35
2023-03-28T22:20:45.570Z,1.20
2023-03-28T22:22:18.747Z,1.58
2023-03-28T22:23:54.336Z,1.70
2023-03-28T22:25:27.586Z,1.20
2023-03-28T22:27:00.797Z,1.90
2023-03-28T22:28:35.403Z,2.10
2023-03-28T22:30:11.706Z,1.70
2023-03-28T22:31:45.153Z,2.58
2023-03-28T22:33:19.474Z,0.98
2023-03-28T22:34:52.982Z,2.22
2023-03-28T22:36:26.925Z,2.55
2023-03-28T22:38:00.256Z,1.80
2023-03-28T22:39:33.582Z,1.80